Lodi, Ohio
Current Conditions -  °F | °C
As of 1:34 PM on Sunday 25 Jan 2015 (Local Time) from KBJJ Reporting Station
Light Snow Light Snow  
Wind Chill: 20°   Ceiling: 3000
Heat Index: 30°   Visibility: 2mi
Dew Point: 26°   Wind: 14mph
Humidity: 85%   Direction: 50°NE
Pressure: 29.78"   Gusts: NA
Location:  41.03°N, 82.01°W
Report Text: KBJJ 251834Z AUTO 05012KT 2SM -SN BR FEW008 BKN030 OVC035 M01/M03 A2978 RMK AO2 P0000 T10111033 TSNO
Loading
Personal Weather Stations






























Interactive Weather Map New forecast layout! Learn more

10-Day Weather Forecast

Advertisements
Track Severe Weather on mobile